Airfield :
LOGIN :

Register | Disclaimer

   EN    FR    IT 

 










Legend :    VFR   Marginal VFR   IFR   Intensive IFR   Very Intensive IFR
Visi :
Ceiling :
>= 8 km
>= 3000ft
5 to 8 km
1000 to 3000 ft
1500m to 5 km
500 to 1000 ft
800 to 1500m
200 to 500 ft
< 800m
< 200 ft
Symbols :   Thunderstorms  Fog  Heavy snow  Heavy precipitations  Wind > 20 kt
SIGMETs :     Misc.  Thunderstorms  Icing  Turbulence  Mountain Waves  Volcanic Ashes






- Airport Elevation : 755 ft
- IATA code : DRS


EDDC - Dresden Klotzsche

CURRENT METAR :
  • 250950Z 19005KT 4500 BR OVC006 M02/M03 Q1023 NOSIG

EXPIRED METARs :
  • 250920Z 20006KT 4500 BR OVC006 M02/M03 Q1022 NOSIG
  • 250850Z 21005KT 4500 BR OVC006 M02/M03 Q1022 NOSIG
  • 250820Z 22002KT 4500 BR OVC006 M03/M04 Q1022 NOSIG
  • 250750Z 19005KT 4500 BR OVC006 M03/M04 Q1022 NOSIG
  • 250720Z 21005KT 4500 BR OVC007 M03/M04 Q1021 NOSIG

TAF TAF EDDC
Valid from the 25 at 06:00 until the 26 at 06:00 UTC


250500Z 2506/2606 23005KT 8000 BKN008
PROB40
TEMPO 2506/2509 4000 BR BKN004
BECMG 2508/2512 SCT015
TEMPO 2522/2606 4000 BR BKN008



MET'MAP, your aeronautical weather chart ! - Copyright ORBIFLY December 2007 - Disclaimer

ORBIFLY MET'MAP TEAM :

Programming & Development : Alexandra Zaïnal
Concept & original design : Baudouin d'Aumeries
Assistance for programming : Marc-Olivier Méhu
Technical & hardware support : Manuel Goepfert

Contact : metmap@orbifly.com




SOURCES & CREDITS :

   NOAA